Terminal Aerodrome Forecast
Issued by NWS Cleveland, OH

Home | Current Version | Previous Version | Text Only | Print | Product List | Glossary On
Versions: 1 2 3 4 5 6 7 8 9 10 11 12 13 14 15
000
FTUS41 KCLE 252113 AAC
TAFYNG
TAF AMD
KYNG 252113Z 2521/2618 22010KT P6SM BKN070
     FM260000 18004KT P6SM SCT070
     FM261200 18006KT P6SM SCT035 BKN070
     FM261400 20006KT 4SM -TSRA BR OVC025CB
     FM261500 20008KT P6SM BKN035
     FM261700 22008KT P6SM BKN070=

USA.gov is the U.S. government's official web portal to all federal, state and local government web resources and services.